Time;durP1;ratioP1;P1;durP2;ratioP2;P2;SDS_P1;SDS_P2;PMS_P1;PMS_P2;Temp;Humidity;BMP_temperature;BMP_pressure;BME280_temperature;BME280_humidity;BME280_pressure;Samples;Min_cycle;Max_cycle;Signal;HPM_P1;HPM_P2
2021/12/02 00:03:41;;;;;;;4.10;0.90;;;;;;;;;;7494318;39;20178;-72
2021/12/02 00:08:46;;;;;;;2.30;0.70;;;;;;;;;;7494962;39;21415;-73
2021/12/02 00:24:24;;;;;;;5.63;1.10;;;;;;;;;;7494400;39;21488;-75
2021/12/02 00:29:30;;;;;;;3.30;1.10;;;;;;;;;;7494719;39;21515;-76
2021/12/02 00:34:36;;;;;;;3.60;1.12;;;;;;;;;;7494309;39;21580;-72
2021/12/02 00:39:42;;;;;;;3.30;0.93;;;;;;;;;;7494198;39;21523;-72
2021/12/02 00:44:46;;;;;;;3.45;1.30;;;;;;;;;;7494253;39;21415;-71
2021/12/02 00:49:51;;;;;;;2.40;0.90;;;;;;;;;;7494339;39;21919;-71
2021/12/02 00:54:56;;;;;;;5.42;1.12;;;;;;;;;;7494763;39;21610;-72
2021/12/02 01:00:04;;;;;;;4.20;1.20;;;;;;;;;;7495131;39;21862;-72
2021/12/02 01:05:08;;;;;;;3.33;1.00;;;;;;;;;;7494018;39;21465;-75
2021/12/02 01:10:13;;;;;;;3.40;1.10;;;;;;;;;;7494108;39;21295;-75
2021/12/02 01:15:18;;;;;;;4.10;0.90;;;;;;;;;;7494354;39;21500;-75
2021/12/02 01:20:22;;;;;;;3.62;1.35;;;;;;;;;;7494397;39;21432;-76
2021/12/02 01:26:00;;;;;;;2.72;1.07;;;;;;;;;;7494425;39;21468;-75
2021/12/02 01:30:36;;;;;;;2.87;1.10;;;;;;;;;;7494044;39;21536;-72
2021/12/02 01:35:41;;;;;;;2.72;0.80;;;;;;;;;;7494471;39;21566;-71
2021/12/02 01:40:46;;;;;;;2.77;0.87;;;;;;;;;;7493841;39;21920;-71
2021/12/02 01:45:51;;;;;;;3.17;1.00;;;;;;;;;;7494179;39;21514;-71
2021/12/02 01:51:15;;;;;;;3.10;1.00;;;;;;;;;;7494183;39;21513;-72
2021/12/02 01:56:20;;;;;;;4.50;1.17;;;;;;;;;;7494081;39;20993;-71
2021/12/02 02:01:27;;;;;;;3.20;1.10;;;;;;;;;;7494262;39;21458;-71
2021/12/02 02:06:33;;;;;;;4.40;1.30;;;;;;;;;;7493688;39;21501;-71
2021/12/02 02:11:38;;;;;;;2.67;0.90;;;;;;;;;;7493692;39;21507;-71
2021/12/02 02:16:43;;;;;;;3.17;1.12;;;;;;;;;;7493843;39;21576;-71
2021/12/02 02:21:48;;;;;;;4.70;1.30;;;;;;;;;;7493942;39;21420;-71
2021/12/02 02:26:53;;;;;;;4.50;1.10;;;;;;;;;;7493639;39;21462;-71
2021/12/02 02:31:58;;;;;;;3.93;1.17;;;;;;;;;;7494613;39;21393;-72
2021/12/02 02:37:05;;;;;;;3.12;1.07;;;;;;;;;;7493778;39;21510;-71
2021/12/02 02:42:09;;;;;;;3.62;1.10;;;;;;;;;;7494076;39;21488;-72
2021/12/02 02:47:14;;;;;;;3.53;1.20;;;;;;;;;;7494223;39;21469;-72
2021/12/02 02:52:19;;;;;;;5.40;1.20;;;;;;;;;;7495062;39;21442;-71
2021/12/02 02:57:27;;;;;;;3.27;1.20;;;;;;;;;;7494753;39;20212;-75
2021/12/02 03:07:58;;;;;;;2.40;0.90;;;;;;;;;;7495069;39;20222;-76
2021/12/02 03:18:25;;;;;;;5.42;1.07;;;;;;;;;;7494765;39;21489;-76
2021/12/02 03:23:30;;;;;;;4.83;1.30;;;;;;;;;;7495175;39;21569;-75
2021/12/02 03:28:35;;;;;;;4.00;1.27;;;;;;;;;;7495156;39;21934;-76
2021/12/02 03:33:41;;;;;;;8.08;1.70;;;;;;;;;;7494100;39;21503;-76
2021/12/02 03:38:46;;;;;;;6.07;1.67;;;;;;;;;;7494715;39;21480;-71
2021/12/02 03:43:51;;;;;;;4.58;2.05;;;;;;;;;;7495226;39;21527;-71
2021/12/02 03:48:56;;;;;;;12.70;3.10;;;;;;;;;;7494377;39;21523;-71
2021/12/02 03:54:02;;;;;;;8.75;4.03;;;;;;;;;;7494832;39;20167;-71
2021/12/02 03:59:07;;;;;;;8.68;2.83;;;;;;;;;;7495026;39;21515;-71
2021/12/02 04:04:11;;;;;;;8.63;3.20;;;;;;;;;;7493854;39;21471;-71
2021/12/02 04:09:20;;;;;;;10.05;3.70;;;;;;;;;;7494230;39;21474;-71
2021/12/02 04:15:02;;;;;;;15.57;4.00;;;;;;;;;;7494522;39;21458;-71
2021/12/02 04:19:29;;;;;;;8.83;3.67;;;;;;;;;;7494874;39;20222;-71
2021/12/02 04:24:35;;;;;;;8.48;4.05;;;;;;;;;;7494475;39;21585;-73
2021/12/02 04:29:39;;;;;;;6.30;2.40;;;;;;;;;;7494950;39;21421;-74
2021/12/02 04:34:44;;;;;;;11.25;2.40;;;;;;;;;;7495425;39;21543;-74
2021/12/02 04:39:49;;;;;;;5.97;2.00;;;;;;;;;;7495353;39;21442;-74
2021/12/02 04:44:54;;;;;;;15.08;2.60;;;;;;;;;;7494462;39;21564;-74
2021/12/02 04:49:59;;;;;;;25.32;5.47;;;;;;;;;;7494604;39;21439;-74
2021/12/02 04:55:03;;;;;;;17.47;4.20;;;;;;;;;;7495284;39;20186;-72
2021/12/02 05:00:08;;;;;;;13.25;3.30;;;;;;;;;;7493946;39;21508;-73
2021/12/02 05:05:13;;;;;;;27.50;6.83;;;;;;;;;;7494471;39;21506;-71
2021/12/02 05:10:18;;;;;;;17.80;4.65;;;;;;;;;;7494783;39;21498;-71
2021/12/02 05:15:23;;;;;;;21.50;4.15;;;;;;;;;;7493950;39;21488;-71
2021/12/02 05:20:28;;;;;;;11.93;4.00;;;;;;;;;;7493644;39;21467;-74
2021/12/02 05:25:33;;;;;;;20.88;5.92;;;;;;;;;;7493954;39;20825;-70
2021/12/02 05:30:38;;;;;;;16.43;3.70;;;;;;;;;;7493583;39;21455;-74
2021/12/02 05:35:42;;;;;;;24.30;4.87;;;;;;;;;;7493829;39;21515;-74
2021/12/02 05:40:47;;;;;;;14.30;4.28;;;;;;;;;;7494269;39;21473;-77
2021/12/02 05:45:52;;;;;;;23.90;4.37;;;;;;;;;;7494816;39;21463;-74
2021/12/02 05:50:57;;;;;;;19.82;4.47;;;;;;;;;;7493388;39;21484;-72
2021/12/02 05:56:02;;;;;;;19.63;4.03;;;;;;;;;;7494548;39;20231;-72
2021/12/02 06:01:06;;;;;;;13.53;3.42;;;;;;;;;;7493598;39;21709;-69
2021/12/02 06:06:14;;;;;;;25.30;5.15;;;;;;;;;;7494157;39;21497;-70
2021/12/02 06:11:18;;;;;;;19.13;4.47;;;;;;;;;;7491432;39;21606;-71
2021/12/02 06:16:23;;;;;;;19.25;4.03;;;;;;;;;;7490743;39;20178;-71
2021/12/02 06:21:27;;;;;;;38.23;12.00;;;;;;;;;;7490662;39;21864;-71
2021/12/02 06:26:32;;;;;;;23.10;5.70;;;;;;;;;;7491358;39;20983;-70
2021/12/02 06:31:37;;;;;;;24.45;6.28;;;;;;;;;;7492599;39;20183;-70
2021/12/02 06:36:42;;;;;;;22.80;7.17;;;;;;;;;;7493153;39;20200;-71
2021/12/02 06:41:47;;;;;;;25.48;6.37;;;;;;;;;;7493351;39;21441;-71
2021/12/02 06:46:51;;;;;;;21.47;8.23;;;;;;;;;;7491929;39;20230;-71
2021/12/02 06:51:56;;;;;;;13.58;4.55;;;;;;;;;;7493708;39;21550;-72
2021/12/02 06:57:01;;;;;;;16.10;5.03;;;;;;;;;;7493122;39;21711;-70
2021/12/02 07:02:06;;;;;;;23.43;10.57;;;;;;;;;;7491100;39;20899;-69
2021/12/02 07:07:11;;;;;;;13.50;4.58;;;;;;;;;;7493811;39;21476;-70
2021/12/02 07:12:18;;;;;;;20.00;5.20;;;;;;;;;;7492786;39;21498;-72
2021/12/02 07:17:22;;;;;;;19.60;4.50;;;;;;;;;;7492179;39;21515;-71
2021/12/02 07:22:27;;;;;;;12.90;3.50;;;;;;;;;;7492365;39;21511;-73
2021/12/02 07:27:32;;;;;;;14.83;4.30;;;;;;;;;;7495243;39;21467;-73
2021/12/02 07:32:56;;;;;;;23.07;4.80;;;;;;;;;;7494932;39;21938;-74
2021/12/02 07:38:02;;;;;;;17.87;3.50;;;;;;;;;;7494632;39;21441;-72
2021/12/02 07:43:07;;;;;;;15.68;4.45;;;;;;;;;;7495288;39;21497;-73
2021/12/02 07:48:12;;;;;;;9.98;3.58;;;;;;;;;;7494323;39;21653;-76
2021/12/02 07:53:18;;;;;;;9.63;3.30;;;;;;;;;;7494718;39;20923;-77
2021/12/02 07:58:24;;;;;;;16.23;3.72;;;;;;;;;;7494051;39;21519;-73
2021/12/02 08:03:29;;;;;;;20.37;5.43;;;;;;;;;;7494646;39;21590;-73
2021/12/02 08:08:34;;;;;;;21.02;5.05;;;;;;;;;;7494281;39;21559;-72
2021/12/02 08:13:39;;;;;;;12.53;3.42;;;;;;;;;;7493587;39;21494;-72
2021/12/02 08:18:44;;;;;;;13.07;3.60;;;;;;;;;;7493837;39;21446;-73
2021/12/02 08:23:49;;;;;;;19.80;8.53;;;;;;;;;;7494594;39;21519;-73
2021/12/02 08:28:54;;;;;;;19.57;5.37;;;;;;;;;;7492778;39;21567;-73
2021/12/02 08:33:59;;;;;;;16.95;3.65;;;;;;;;;;7492850;39;21559;-72
2021/12/02 08:39:06;;;;;;;20.72;5.35;;;;;;;;;;7492867;39;20213;-73
2021/12/02 08:44:10;;;;;;;9.00;3.23;;;;;;;;;;7492037;39;21490;-72
2021/12/02 08:49:15;;;;;;;18.85;4.45;;;;;;;;;;7493010;39;21497;-72
2021/12/02 08:54:20;;;;;;;32.27;20.17;;;;;;;;;;7493305;39;21515;-72
2021/12/02 08:59:25;;;;;;;21.77;6.55;;;;;;;;;;7490376;39;21444;-73
2021/12/02 09:04:30;;;;;;;16.55;4.85;;;;;;;;;;7489407;39;20216;-72
2021/12/02 09:09:35;;;;;;;20.50;5.40;;;;;;;;;;7489336;39;21513;-72
2021/12/02 09:14:40;;;;;;;18.32;6.85;;;;;;;;;;7489567;39;21448;-72
2021/12/02 09:19:46;;;;;;;17.50;4.13;;;;;;;;;;7488830;39;21499;-72
2021/12/02 09:24:51;;;;;;;14.03;4.03;;;;;;;;;;7493428;39;21465;-72
2021/12/02 09:29:55;;;;;;;28.10;10.58;;;;;;;;;;7493821;39;21577;-72
2021/12/02 09:35:00;;;;;;;15.93;4.10;;;;;;;;;;7494099;39;21487;-72
2021/12/02 09:40:07;;;;;;;20.97;6.72;;;;;;;;;;7493869;39;21508;-72
2021/12/02 09:45:12;;;;;;;11.03;2.90;;;;;;;;;;7493448;39;21565;-72
2021/12/02 09:50:40;;;;;;;12.75;3.52;;;;;;;;;;7494109;39;21417;-72
2021/12/02 10:06:33;;;;;;;21.12;4.72;;;;;;;;;;7493881;39;21461;-71
2021/12/02 10:12:01;;;;;;;21.70;7.47;;;;;;;;;;7494225;39;21455;-72
2021/12/02 10:28:34;;;;;;;12.90;2.33;;;;;;;;;;7491844;39;20247;-71
2021/12/02 10:33:59;;;;;;;18.62;3.80;;;;;;;;;;7492126;39;21517;-71
2021/12/02 10:39:25;;;;;;;21.73;4.10;;;;;;;;;;7492232;39;21435;-71
2021/12/02 10:45:02;;;;;;;18.15;4.00;;;;;;;;;;7492219;39;21516;-71
2021/12/02 10:49:58;;;;;;;22.98;6.85;;;;;;;;;;7491948;39;21748;-71
2021/12/02 10:55:05;;;;;;;14.03;3.20;;;;;;;;;;7493493;39;20192;-72
2021/12/02 11:00:12;;;;;;;19.15;6.30;;;;;;;;;;7493155;39;21542;-70
2021/12/02 11:05:37;;;;;;;9.70;2.73;;;;;;;;;;7493491;39;20224;-72
2021/12/02 11:10:42;;;;;;;10.85;2.70;;;;;;;;;;7492873;39;21463;-71
2021/12/02 11:15:47;;;;;;;15.55;5.95;;;;;;;;;;7492154;39;21489;-71
2021/12/02 11:20:58;;;;;;;17.33;4.13;;;;;;;;;;7491730;39;21676;-71
2021/12/02 11:26:02;;;;;;;12.33;2.15;;;;;;;;;;7491959;39;21101;-72
2021/12/02 11:31:26;;;;;;;6.93;3.30;;;;;;;;;;7492873;39;21497;-72
2021/12/02 11:36:31;;;;;;;9.93;4.28;;;;;;;;;;7492759;39;20226;-71
2021/12/02 11:41:36;;;;;;;13.78;2.25;;;;;;;;;;7493206;39;21453;-71
2021/12/02 11:46:41;;;;;;;15.37;4.77;;;;;;;;;;7492422;39;20164;-72
2021/12/02 11:51:46;;;;;;;15.70;3.55;;;;;;;;;;7493306;39;21480;-72
2021/12/02 11:56:51;;;;;;;10.57;2.20;;;;;;;;;;7492263;39;21541;-71
2021/12/02 12:01:57;;;;;;;14.03;2.72;;;;;;;;;;7493899;39;21415;-72
2021/12/02 12:07:22;;;;;;;15.08;3.15;;;;;;;;;;7493402;39;21464;-72
2021/12/02 12:12:28;;;;;;;19.27;4.90;;;;;;;;;;7492518;39;21654;-72
2021/12/02 12:17:35;;;;;;;18.67;9.50;;;;;;;;;;7491838;39;21481;-71
2021/12/02 12:22:39;;;;;;;12.23;2.40;;;;;;;;;;7491456;39;21473;-72
2021/12/02 12:27:46;;;;;;;17.23;3.25;;;;;;;;;;7492131;39;20997;-72
2021/12/02 12:38:38;;;;;;;21.33;7.87;;;;;;;;;;7491065;39;21507;-72
2021/12/02 12:44:03;;;;;;;23.15;3.00;;;;;;;;;;7491893;39;21463;-72
2021/12/02 12:49:27;;;;;;;16.03;2.77;;;;;;;;;;7490274;39;20220;-72
2021/12/02 12:54:32;;;;;;;7.35;2.60;;;;;;;;;;7492171;39;21645;-71
2021/12/02 12:59:57;;;;;;;9.53;2.20;;;;;;;;;;7493363;39;21460;-72
2021/12/02 13:05:03;;;;;;;9.30;2.43;;;;;;;;;;7493227;39;21524;-72
2021/12/02 13:10:43;;;;;;;18.32;4.20;;;;;;;;;;7493494;39;21412;-71
2021/12/02 13:15:36;;;;;;;8.13;2.03;;;;;;;;;;7493141;39;21586;-75
2021/12/02 13:20:42;;;;;;;27.52;7.60;;;;;;;;;;7493771;39;21389;-74
2021/12/02 13:26:10;;;;;;;19.52;5.08;;;;;;;;;;7493171;39;20768;-74
2021/12/02 13:31:14;;;;;;;19.17;3.30;;;;;;;;;;7494233;39;21490;-74
2021/12/02 13:36:20;;;;;;;15.10;4.95;;;;;;;;;;7493772;39;20230;-73
2021/12/02 13:41:25;;;;;;;16.50;3.80;;;;;;;;;;7492195;39;21503;-72
2021/12/02 13:46:31;;;;;;;7.42;2.20;;;;;;;;;;7493061;39;21451;-73
2021/12/02 13:57:03;;;;;;;16.43;4.87;;;;;;;;;;7491990;39;20899;-72
2021/12/02 14:02:08;;;;;;;8.45;2.30;;;;;;;;;;7491417;39;21416;-74
2021/12/02 14:07:15;;;;;;;4.93;1.63;;;;;;;;;;7491093;39;20234;-75
2021/12/02 14:12:21;;;;;;;10.65;3.83;;;;;;;;;;7490760;39;21683;-73
2021/12/02 14:17:26;;;;;;;9.23;2.80;;;;;;;;;;7492184;39;21420;-73
2021/12/02 14:22:32;;;;;;;10.73;3.20;;;;;;;;;;7491673;39;21524;-74
2021/12/02 14:27:37;;;;;;;19.23;7.05;;;;;;;;;;7491849;39;20391;-73
2021/12/02 14:32:43;;;;;;;24.83;3.97;;;;;;;;;;7491362;39;21620;-74
2021/12/02 14:37:49;;;;;;;24.18;4.40;;;;;;;;;;7491630;39;20704;-73
2021/12/02 14:42:54;;;;;;;10.55;2.33;;;;;;;;;;7492362;39;21076;-71
2021/12/02 14:47:59;;;;;;;28.00;8.67;;;;;;;;;;7493864;39;21477;-71
2021/12/02 14:53:06;;;;;;;18.82;4.37;;;;;;;;;;7493471;39;21464;-71
2021/12/02 14:58:30;;;;;;;13.70;3.97;;;;;;;;;;7492068;39;20173;-70
2021/12/02 15:03:35;;;;;;;15.78;3.60;;;;;;;;;;7492959;39;21607;-71
2021/12/02 15:08:40;;;;;;;16.52;3.52;;;;;;;;;;7492664;39;20195;-70
2021/12/02 15:13:45;;;;;;;26.73;6.00;;;;;;;;;;7491810;39;21431;-70
2021/12/02 15:18:50;;;;;;;25.50;5.30;;;;;;;;;;7491693;39;20235;-71
2021/12/02 15:23:55;;;;;;;22.87;5.07;;;;;;;;;;7491145;39;21470;-71
2021/12/02 15:29:01;;;;;;;22.22;9.40;;;;;;;;;;7491810;39;21422;-70
2021/12/02 15:34:05;;;;;;;6.47;2.75;;;;;;;;;;7493113;39;20105;-72
2021/12/02 15:39:10;;;;;;;15.27;3.50;;;;;;;;;;7493639;39;21475;-75
2021/12/02 15:44:18;;;;;;;13.55;3.25;;;;;;;;;;7494117;39;20240;-72
2021/12/02 15:49:24;;;;;;;16.50;4.50;;;;;;;;;;7493929;39;21561;-72
2021/12/02 15:54:30;;;;;;;21.20;4.15;;;;;;;;;;7494356;39;21483;-73
2021/12/02 15:59:36;;;;;;;13.38;3.45;;;;;;;;;;7491353;39;21901;-69
2021/12/02 16:04:47;;;;;;;22.77;9.57;;;;;;;;;;7490500;39;21086;-69
2021/12/02 16:15:14;;;;;;;23.27;7.60;;;;;;;;;;7491649;39;21411;-68
2021/12/02 16:20:20;;;;;;;15.83;3.98;;;;;;;;;;7490990;39;22816;-70
2021/12/02 16:25:26;;;;;;;15.03;2.45;;;;;;;;;;7491776;39;20191;-69
2021/12/02 16:30:34;;;;;;;20.73;6.93;;;;;;;;;;7490877;39;21419;-70
2021/12/02 16:35:37;;;;;;;25.57;5.42;;;;;;;;;;7491724;39;20165;-70
2021/12/02 16:40:44;;;;;;;7.63;1.50;;;;;;;;;;7491079;39;21494;-69
2021/12/02 16:45:51;;;;;;;13.45;1.80;;;;;;;;;;7490933;39;20209;-70
2021/12/02 16:50:55;;;;;;;7.78;1.65;;;;;;;;;;7491578;39;21453;-70
2021/12/02 16:56:00;;;;;;;11.13;1.60;;;;;;;;;;7490805;39;21527;-70
2021/12/02 17:01:05;;;;;;;21.82;5.28;;;;;;;;;;7490841;39;21427;-69
2021/12/02 17:06:10;;;;;;;10.03;2.50;;;;;;;;;;7491145;39;21499;-70
2021/12/02 17:11:15;;;;;;;8.08;2.47;;;;;;;;;;7490950;39;21689;-69
2021/12/02 17:16:20;;;;;;;19.77;3.92;;;;;;;;;;7491442;39;21038;-70
2021/12/02 17:21:25;;;;;;;19.93;3.47;;;;;;;;;;7490801;39;21522;-69
2021/12/02 17:26:30;;;;;;;11.33;2.67;;;;;;;;;;7491445;39;21443;-69
2021/12/02 17:31:35;;;;;;;17.60;6.27;;;;;;;;;;7491556;39;21524;-70
2021/12/02 17:36:41;;;;;;;13.22;5.90;;;;;;;;;;7490530;39;21486;-70
2021/12/02 17:41:46;;;;;;;17.75;2.95;;;;;;;;;;7491357;39;20298;-70
2021/12/02 17:46:52;;;;;;;19.10;6.70;;;;;;;;;;7491375;39;21921;-67
2021/12/02 17:51:57;;;;;;;12.25;3.42;;;;;;;;;;7491062;39;21602;-70
2021/12/02 17:57:02;;;;;;;13.50;2.83;;;;;;;;;;7490458;39;20234;-69
2021/12/02 18:02:08;;;;;;;16.50;4.30;;;;;;;;;;7490956;39;21453;-70
2021/12/02 18:07:13;;;;;;;18.25;2.98;;;;;;;;;;7490181;39;21150;-70
2021/12/02 18:12:18;;;;;;;12.50;2.80;;;;;;;;;;7492504;39;21197;-71
2021/12/02 18:17:23;;;;;;;10.10;2.50;;;;;;;;;;7491301;39;20178;-73
2021/12/02 18:22:28;;;;;;;10.10;2.53;;;;;;;;;;7490760;39;21505;-70
2021/12/02 18:27:33;;;;;;;24.20;4.40;;;;;;;;;;7488017;39;20391;-69
2021/12/02 18:32:38;;;;;;;16.30;2.70;;;;;;;;;;7491090;39;21196;-70
2021/12/02 18:37:43;;;;;;;22.83;4.13;;;;;;;;;;7491315;39;21562;-69
2021/12/02 18:42:47;;;;;;;13.28;2.02;;;;;;;;;;7492879;39;21427;-70
2021/12/02 18:47:52;;;;;;;12.47;2.90;;;;;;;;;;7491355;39;20420;-70
2021/12/02 18:52:57;;;;;;;13.35;3.08;;;;;;;;;;7493089;39;21475;-70
2021/12/02 18:58:02;;;;;;;16.17;3.37;;;;;;;;;;7494573;39;20826;-69
2021/12/02 19:03:07;;;;;;;21.57;5.03;;;;;;;;;;7494087;39;21654;-69
2021/12/02 19:29:50;;;;;;;16.30;2.30;;;;;;;;;;7491666;39;21485;-70
2021/12/02 19:34:55;;;;;;;17.00;4.65;;;;;;;;;;7491147;39;20239;-72
2021/12/02 19:40:00;;;;;;;24.17;6.17;;;;;;;;;;7491474;39;21779;-70
2021/12/02 19:45:05;;;;;;;17.42;5.25;;;;;;;;;;7491014;39;20879;-73
2021/12/02 19:50:10;;;;;;;13.08;3.20;;;;;;;;;;7489223;39;21601;-68
2021/12/02 19:55:15;;;;;;;19.77;7.80;;;;;;;;;;7489861;39;20167;-67
2021/12/02 20:00:21;;;;;;;14.43;3.20;;;;;;;;;;7488979;39;21859;-70
2021/12/02 20:05:28;;;;;;;5.70;1.30;;;;;;;;;;7491708;39;21593;-70
2021/12/02 20:10:32;;;;;;;10.30;1.42;;;;;;;;;;7492519;39;21462;-71
2021/12/02 20:21:02;;;;;;;7.13;1.70;;;;;;;;;;7491552;39;21437;-70
2021/12/02 20:26:07;;;;;;;8.05;1.50;;;;;;;;;;7492409;39;21493;-72
2021/12/02 20:31:13;;;;;;;6.72;1.52;;;;;;;;;;7492536;39;21450;-67
2021/12/02 20:36:18;;;;;;;4.10;1.30;;;;;;;;;;7491002;39;20282;-68
2021/12/02 20:41:23;;;;;;;3.33;1.17;;;;;;;;;;7491397;39;21485;-67
2021/12/02 20:46:31;;;;;;;3.67;1.03;;;;;;;;;;7492456;39;21873;-66
2021/12/02 20:51:35;;;;;;;4.25;1.25;;;;;;;;;;7491900;39;21192;-67
2021/12/02 20:56:43;;;;;;;4.35;1.27;;;;;;;;;;7491525;39;20292;-66
2021/12/02 21:01:48;;;;;;;6.12;1.52;;;;;;;;;;7490523;39;21855;-66
2021/12/02 21:06:52;;;;;;;8.58;1.55;;;;;;;;;;7491288;39;21164;-67
2021/12/02 21:11:57;;;;;;;5.80;1.10;;;;;;;;;;7491692;39;21520;-67
2021/12/02 21:17:02;;;;;;;6.53;1.27;;;;;;;;;;7491845;39;20359;-67
2021/12/02 21:22:07;;;;;;;2.98;1.07;;;;;;;;;;7492796;39;21480;-66
2021/12/02 21:27:15;;;;;;;3.02;1.00;;;;;;;;;;7491573;39;21542;-68
2021/12/02 21:32:18;;;;;;;4.55;1.22;;;;;;;;;;7491458;39;21536;-67
2021/12/02 21:37:44;;;;;;;4.00;1.20;;;;;;;;;;7491025;39;20221;-67
2021/12/02 21:42:49;;;;;;;5.90;1.50;;;;;;;;;;7491419;39;21712;-67
2021/12/02 21:47:54;;;;;;;5.85;1.45;;;;;;;;;;7491798;39;20227;-66
2021/12/02 21:53:00;;;;;;;5.47;1.40;;;;;;;;;;7490730;39;21562;-67
2021/12/02 21:58:08;;;;;;;5.08;1.47;;;;;;;;;;7490559;39;20217;-66
2021/12/02 22:03:14;;;;;;;5.33;1.73;;;;;;;;;;7491890;39;21493;-67
2021/12/02 22:08:19;;;;;;;4.35;1.95;;;;;;;;;;7491179;39;21701;-66
2021/12/02 22:13:24;;;;;;;5.87;1.90;;;;;;;;;;7491120;39;21490;-66
2021/12/02 22:18:29;;;;;;;5.42;1.60;;;;;;;;;;7490661;39;21535;-67
2021/12/02 22:23:34;;;;;;;4.30;1.50;;;;;;;;;;7490840;39;21453;-67
2021/12/02 22:28:38;;;;;;;7.10;1.53;;;;;;;;;;7491596;39;21522;-67
2021/12/02 22:33:44;;;;;;;4.80;1.40;;;;;;;;;;7491192;39;21484;-67
2021/12/02 22:38:49;;;;;;;4.12;1.42;;;;;;;;;;7492508;39;21500;-66
2021/12/02 22:43:54;;;;;;;4.70;1.20;;;;;;;;;;7491186;39;21474;-66
2021/12/02 22:48:59;;;;;;;5.47;1.35;;;;;;;;;;7489446;39;21566;-66
2021/12/02 22:54:04;;;;;;;3.03;1.13;;;;;;;;;;7491276;39;21496;-67
2021/12/02 22:59:08;;;;;;;6.28;1.32;;;;;;;;;;7490939;39;21540;-67
2021/12/02 23:04:13;;;;;;;4.25;1.42;;;;;;;;;;7492693;39;21877;-66
2021/12/02 23:09:18;;;;;;;5.47;1.65;;;;;;;;;;7492629;39;21160;-67
2021/12/02 23:14:24;;;;;;;5.03;1.40;;;;;;;;;;7492006;39;21731;-66
2021/12/02 23:19:29;;;;;;;4.07;1.40;;;;;;;;;;7491813;39;21546;-67
2021/12/02 23:29:58;;;;;;;8.90;2.10;;;;;;;;;;7492407;39;21527;-68
2021/12/02 23:35:04;;;;;;;4.10;1.90;;;;;;;;;;7491851;39;21495;-67
2021/12/02 23:40:09;;;;;;;5.42;1.80;;;;;;;;;;7492124;39;21957;-66
2021/12/02 23:45:14;;;;;;;4.60;1.70;;;;;;;;;;7491690;39;20189;-66
2021/12/02 23:50:19;;;;;;;6.40;1.60;;;;;;;;;;7493254;39;21486;-65
2021/12/02 23:55:24;;;;;;;11.63;1.70;;;;;;;;;;7492489;39;21532;-68
